sensor_id;sensor_type;location;lat;lon;timestamp;P1;durP1;ratioP1;P2;durP2;ratioP2
55212;SDS011;41083;52.932;6.674;2022-10-26T07:16:18;16.67;;;3.67;;
55212;SDS011;41083;52.932;6.674;2022-10-26T07:18:45;4.75;;;1.90;;
55212;SDS011;41083;52.932;6.674;2022-10-26T07:21:10;3.88;;;2.17;;
55212;SDS011;41083;52.932;6.674;2022-10-26T07:23:36;3.05;;;2.10;;
55212;SDS011;41083;52.932;6.674;2022-10-26T07:26:01;5.75;;;2.40;;
55212;SDS011;41083;52.932;6.674;2022-10-26T07:28:27;3.67;;;1.92;;
55212;SDS011;41083;52.932;6.674;2022-10-26T07:30:53;4.28;;;2.17;;
55212;SDS011;41083;52.932;6.674;2022-10-26T07:33:18;3.63;;;1.85;;
55212;SDS011;41083;52.932;6.674;2022-10-26T07:35:44;3.10;;;1.67;;
55212;SDS011;41083;52.932;6.674;2022-10-26T07:38:09;4.40;;;2.17;;
55212;SDS011;41083;52.932;6.674;2022-10-26T07:40:37;5.47;;;1.85;;
55212;SDS011;41083;52.932;6.674;2022-10-26T07:43:02;3.25;;;2.03;;
55212;SDS011;41083;52.932;6.674;2022-10-26T07:45:28;3.25;;;2.00;;
55212;SDS011;41083;52.932;6.674;2022-10-26T07:47:54;3.15;;;1.60;;
55212;SDS011;41083;52.932;6.674;2022-10-26T07:50:21;4.18;;;1.80;;
55212;SDS011;41083;52.932;6.674;2022-10-26T07:52:47;4.00;;;1.50;;
55212;SDS011;41083;52.932;6.674;2022-10-26T07:55:12;3.00;;;1.95;;
55212;SDS011;41083;52.932;6.674;2022-10-26T07:57:38;3.75;;;1.80;;
55212;SDS011;41083;52.932;6.674;2022-10-26T08:00:04;3.10;;;1.60;;
55212;SDS011;41083;52.932;6.674;2022-10-26T08:02:31;9.27;;;1.95;;
55212;SDS011;41083;52.932;6.674;2022-10-26T08:04:57;3.92;;;1.92;;
55212;SDS011;41083;52.932;6.674;2022-10-26T08:07:23;3.53;;;1.95;;
55212;SDS011;41083;52.932;6.674;2022-10-26T08:09:50;3.80;;;1.65;;
55212;SDS011;41083;52.932;6.674;2022-10-26T08:12:16;3.75;;;1.92;;
55212;SDS011;41083;52.932;6.674;2022-10-26T08:14:41;3.72;;;1.90;;
55212;SDS011;41083;52.932;6.674;2022-10-26T08:17:07;2.70;;;1.58;;
55212;SDS011;41083;52.932;6.674;2022-10-26T08:19:33;3.10;;;1.60;;
55212;SDS011;41083;52.932;6.674;2022-10-26T08:21:59;2.13;;;1.20;;
55212;SDS011;41083;52.932;6.674;2022-10-26T08:24:25;6.80;;;1.92;;
55212;SDS011;41083;52.932;6.674;2022-10-26T08:26:50;2.97;;;1.67;;
55212;SDS011;41083;52.932;6.674;2022-10-26T08:29:16;2.65;;;1.30;;
55212;SDS011;41083;52.932;6.674;2022-10-26T08:31:42;2.40;;;1.23;;
55212;SDS011;41083;52.932;6.674;2022-10-26T08:34:07;6.63;;;1.35;;
55212;SDS011;41083;52.932;6.674;2022-10-26T08:36:33;2.28;;;1.00;;
55212;SDS011;41083;52.932;6.674;2022-10-26T08:38:59;2.90;;;1.67;;
55212;SDS011;41083;52.932;6.674;2022-10-26T08:41:43;4.32;;;1.42;;
55212;SDS011;41083;52.932;6.674;2022-10-26T08:44:16;2.40;;;1.10;;
55212;SDS011;41083;52.932;6.674;2022-10-26T08:49:32;2.50;;;1.13;;
55212;SDS011;41083;52.932;6.674;2022-10-26T08:52:12;2.67;;;1.23;;
55212;SDS011;41083;52.932;6.674;2022-10-26T08:54:43;3.22;;;1.30;;
55212;SDS011;41083;52.932;6.674;2022-10-26T08:57:16;2.50;;;1.40;;
55212;SDS011;41083;52.932;6.674;2022-10-26T08:59:47;1.92;;;1.20;;
55212;SDS011;41083;52.932;6.674;2022-10-26T09:02:17;2.60;;;1.45;;
55212;SDS011;41083;52.932;6.674;2022-10-26T09:04:44;5.68;;;1.48;;
55212;SDS011;41083;52.932;6.674;2022-10-26T09:07:17;3.85;;;1.73;;
55212;SDS011;41083;52.932;6.674;2022-10-26T09:10:00;4.93;;;1.70;;
55212;SDS011;41083;52.932;6.674;2022-10-26T09:12:43;4.30;;;1.70;;
55212;SDS011;41083;52.932;6.674;2022-10-26T09:20:56;2.17;;;1.23;;
55212;SDS011;41083;52.932;6.674;2022-10-26T09:23:50;1.83;;;1.08;;
55212;SDS011;41083;52.932;6.674;2022-10-26T09:26:31;2.40;;;1.30;;
55212;SDS011;41083;52.932;6.674;2022-10-26T09:29:10;2.95;;;1.45;;
55212;SDS011;41083;52.932;6.674;2022-10-26T09:31:39;2.05;;;1.17;;
55212;SDS011;41083;52.932;6.674;2022-10-26T09:34:07;10.80;;;1.30;;
55212;SDS011;41083;52.932;6.674;2022-10-26T09:37:28;2.25;;;1.23;;
55212;SDS011;41083;52.932;6.674;2022-10-26T09:40:10;2.95;;;1.33;;
55212;SDS011;41083;52.932;6.674;2022-10-26T09:42:42;2.10;;;1.10;;
55212;SDS011;41083;52.932;6.674;2022-10-26T09:45:29;2.53;;;1.00;;
55212;SDS011;41083;52.932;6.674;2022-10-26T09:48:10;1.75;;;1.23;;
55212;SDS011;41083;52.932;6.674;2022-10-26T09:50:43;2.22;;;0.95;;
55212;SDS011;41083;52.932;6.674;2022-10-26T09:53:12;3.20;;;1.40;;
55212;SDS011;41083;52.932;6.674;2022-10-26T09:55:39;0.95;;;0.70;;
55212;SDS011;41083;52.932;6.674;2022-10-26T09:58:24;1.98;;;0.82;;
55212;SDS011;41083;52.932;6.674;2022-10-26T10:00:53;2.40;;;0.88;;
55212;SDS011;41083;52.932;6.674;2022-10-26T10:03:29;2.15;;;1.17;;
55212;SDS011;41083;52.932;6.674;2022-10-26T10:06:13;2.03;;;0.98;;
55212;SDS011;41083;52.932;6.674;2022-10-26T10:08:40;2.80;;;1.10;;
55212;SDS011;41083;52.932;6.674;2022-10-26T10:11:13;2.05;;;0.93;;
55212;SDS011;41083;52.932;6.674;2022-10-26T10:13:40;2.55;;;1.30;;
55212;SDS011;41083;52.932;6.674;2022-10-26T10:16:21;2.00;;;1.00;;
55212;SDS011;41083;52.932;6.674;2022-10-26T10:18:57;1.90;;;1.02;;
55212;SDS011;41083;52.932;6.674;2022-10-26T10:21:32;2.38;;;0.90;;
55212;SDS011;41083;52.932;6.674;2022-10-26T10:24:25;2.03;;;1.08;;
55212;SDS011;41083;52.932;6.674;2022-10-26T10:29:23;2.03;;;1.08;;
55212;SDS011;41083;52.932;6.674;2022-10-26T10:31:57;6.78;;;1.15;;
55212;SDS011;41083;52.932;6.674;2022-10-26T10:34:24;1.60;;;1.08;;
55212;SDS011;41083;52.932;6.674;2022-10-26T10:36:50;2.25;;;1.10;;
55212;SDS011;41083;52.932;6.674;2022-10-26T10:39:32;3.17;;;0.95;;
55212;SDS011;41083;52.932;6.674;2022-10-26T10:42:02;1.50;;;0.90;;
55212;SDS011;41083;52.932;6.674;2022-10-26T10:44:30;1.90;;;0.90;;
55212;SDS011;41083;52.932;6.674;2022-10-26T10:47:04;2.97;;;1.17;;
55212;SDS011;41083;52.932;6.674;2022-10-26T10:49:31;2.10;;;0.77;;
55212;SDS011;41083;52.932;6.674;2022-10-26T10:51:57;2.50;;;1.05;;
55212;SDS011;41083;52.932;6.674;2022-10-26T10:54:37;2.60;;;1.08;;
55212;SDS011;41083;52.932;6.674;2022-10-26T11:02:32;2.05;;;1.20;;
55212;SDS011;41083;52.932;6.674;2022-10-26T11:05:32;3.75;;;1.40;;
55212;SDS011;41083;52.932;6.674;2022-10-26T11:11:06;3.03;;;1.17;;
55212;SDS011;41083;52.932;6.674;2022-10-26T11:13:38;2.75;;;0.95;;
55212;SDS011;41083;52.932;6.674;2022-10-26T11:16:20;2.00;;;0.80;;
55212;SDS011;41083;52.932;6.674;2022-10-26T11:19:21;2.80;;;1.10;;
55212;SDS011;41083;52.932;6.674;2022-10-26T11:21:53;2.08;;;1.13;;
55212;SDS011;41083;52.932;6.674;2022-10-26T11:26:57;2.13;;;1.02;;
55212;SDS011;41083;52.932;6.674;2022-10-26T11:29:45;1.90;;;1.00;;
55212;SDS011;41083;52.932;6.674;2022-10-26T11:32:16;2.47;;;1.30;;
55212;SDS011;41083;52.932;6.674;2022-10-26T11:37:27;2.55;;;1.08;;
55212;SDS011;41083;52.932;6.674;2022-10-26T11:40:04;2.15;;;1.02;;
55212;SDS011;41083;52.932;6.674;2022-10-26T11:45:25;3.40;;;1.38;;
55212;SDS011;41083;52.932;6.674;2022-10-26T11:48:05;1.77;;;1.02;;
55212;SDS011;41083;52.932;6.674;2022-10-26T11:50:53;1.30;;;0.88;;
55212;SDS011;41083;52.932;6.674;2022-10-26T11:53:34;1.60;;;0.82;;
55212;SDS011;41083;52.932;6.674;2022-10-26T11:56:02;8.65;;;1.98;;
55212;SDS011;41083;52.932;6.674;2022-10-26T11:58:34;4.25;;;1.52;;
55212;SDS011;41083;52.932;6.674;2022-10-26T12:01:09;1.80;;;0.85;;
55212;SDS011;41083;52.932;6.674;2022-10-26T12:03:42;1.80;;;0.80;;
55212;SDS011;41083;52.932;6.674;2022-10-26T12:06:16;2.25;;;0.85;;
55212;SDS011;41083;52.932;6.674;2022-10-26T12:08:59;2.28;;;1.10;;
55212;SDS011;41083;52.932;6.674;2022-10-26T12:11:35;1.65;;;0.70;;
55212;SDS011;41083;52.932;6.674;2022-10-26T12:14:28;2.03;;;1.10;;
55212;SDS011;41083;52.932;6.674;2022-10-26T12:23:04;1.85;;;0.80;;
55212;SDS011;41083;52.932;6.674;2022-10-26T12:25:32;2.05;;;1.23;;
55212;SDS011;41083;52.932;6.674;2022-10-26T12:27:57;1.55;;;0.90;;
55212;SDS011;41083;52.932;6.674;2022-10-26T12:51:17;1.58;;;0.90;;
55212;SDS011;41083;52.932;6.674;2022-10-26T12:56:33;1.58;;;0.85;;
55212;SDS011;41083;52.932;6.674;2022-10-26T13:01:56;1.92;;;0.85;;
55212;SDS011;41083;52.932;6.674;2022-10-26T13:06:58;2.38;;;1.15;;
55212;SDS011;41083;52.932;6.674;2022-10-26T13:09:43;3.72;;;1.35;;
55212;SDS011;41083;52.932;6.674;2022-10-26T13:12:13;2.60;;;0.98;;
55212;SDS011;41083;52.932;6.674;2022-10-26T13:14:40;3.85;;;1.00;;
55212;SDS011;41083;52.932;6.674;2022-10-26T13:17:26;1.95;;;1.00;;
55212;SDS011;41083;52.932;6.674;2022-10-26T13:19:54;2.35;;;1.42;;
55212;SDS011;41083;52.932;6.674;2022-10-26T13:22:22;2.70;;;1.00;;
55212;SDS011;41083;52.932;6.674;2022-10-26T13:24:50;1.75;;;0.93;;
55212;SDS011;41083;52.932;6.674;2022-10-26T13:32:29;2.22;;;1.20;;
55212;SDS011;41083;52.932;6.674;2022-10-26T13:34:59;2.00;;;1.00;;
55212;SDS011;41083;52.932;6.674;2022-10-26T13:37:26;2.08;;;1.00;;
55212;SDS011;41083;52.932;6.674;2022-10-26T13:39:55;2.22;;;1.00;;
55212;SDS011;41083;52.932;6.674;2022-10-26T13:42:24;1.98;;;1.05;;
55212;SDS011;41083;52.932;6.674;2022-10-26T13:47:25;2.13;;;1.02;;
55212;SDS011;41083;52.932;6.674;2022-10-26T13:49:55;5.85;;;1.65;;
55212;SDS011;41083;52.932;6.674;2022-10-26T13:52:29;1.60;;;1.00;;
55212;SDS011;41083;52.932;6.674;2022-10-26T13:55:04;2.08;;;1.30;;
55212;SDS011;41083;52.932;6.674;2022-10-26T13:57:38;6.32;;;1.25;;
55212;SDS011;41083;52.932;6.674;2022-10-26T14:00:18;2.45;;;1.42;;
55212;SDS011;41083;52.932;6.674;2022-10-26T14:02:45;2.28;;;1.38;;
55212;SDS011;41083;52.932;6.674;2022-10-26T14:05:12;3.63;;;1.50;;
55212;SDS011;41083;52.932;6.674;2022-10-26T14:07:48;3.53;;;1.63;;
55212;SDS011;41083;52.932;6.674;2022-10-26T14:10:27;7.00;;;2.08;;
55212;SDS011;41083;52.932;6.674;2022-10-26T14:13:00;3.53;;;1.80;;
55212;SDS011;41083;52.932;6.674;2022-10-26T14:15:31;2.85;;;1.38;;
55212;SDS011;41083;52.932;6.674;2022-10-26T14:17:59;4.53;;;2.22;;
55212;SDS011;41083;52.932;6.674;2022-10-26T14:20:26;5.60;;;1.65;;
55212;SDS011;41083;52.932;6.674;2022-10-26T14:22:53;5.05;;;1.65;;
55212;SDS011;41083;52.932;6.674;2022-10-26T14:25:23;5.55;;;1.60;;
55212;SDS011;41083;52.932;6.674;2022-10-26T14:27:51;2.60;;;1.50;;
55212;SDS011;41083;52.932;6.674;2022-10-26T14:30:23;3.65;;;1.40;;
55212;SDS011;41083;52.932;6.674;2022-10-26T14:32:53;3.53;;;1.67;;
55212;SDS011;41083;52.932;6.674;2022-10-26T14:35:21;2.85;;;1.70;;
55212;SDS011;41083;52.932;6.674;2022-10-26T14:38:15;2.55;;;1.50;;
55212;SDS011;41083;52.932;6.674;2022-10-26T14:40:43;2.33;;;1.30;;
55212;SDS011;41083;52.932;6.674;2022-10-26T14:43:15;2.22;;;1.38;;
55212;SDS011;41083;52.932;6.674;2022-10-26T14:45:46;2.63;;;1.52;;
55212;SDS011;41083;52.932;6.674;2022-10-26T14:48:27;3.75;;;1.65;;
55212;SDS011;41083;52.932;6.674;2022-10-26T14:50:58;2.97;;;1.50;;
55212;SDS011;41083;52.932;6.674;2022-10-26T14:53:28;2.58;;;1.50;;
55212;SDS011;41083;52.932;6.674;2022-10-26T14:55:57;2.10;;;1.40;;
55212;SDS011;41083;52.932;6.674;2022-10-26T14:58:25;4.35;;;1.60;;
55212;SDS011;41083;52.932;6.674;2022-10-26T15:03:57;2.17;;;1.20;;
55212;SDS011;41083;52.932;6.674;2022-10-26T15:08:56;2.53;;;1.60;;
55212;SDS011;41083;52.932;6.674;2022-10-26T15:11:24;3.60;;;1.55;;
55212;SDS011;41083;52.932;6.674;2022-10-26T15:13:50;2.97;;;1.83;;
55212;SDS011;41083;52.932;6.674;2022-10-26T15:16:18;3.15;;;1.75;;
55212;SDS011;41083;52.932;6.674;2022-10-26T15:18:50;3.47;;;1.40;;
55212;SDS011;41083;52.932;6.674;2022-10-26T15:21:25;2.92;;;1.80;;
55212;SDS011;41083;52.932;6.674;2022-10-26T15:23:57;2.20;;;1.50;;
55212;SDS011;41083;52.932;6.674;2022-10-26T15:26:24;2.28;;;1.55;;
55212;SDS011;41083;52.932;6.674;2022-10-26T15:28:50;3.17;;;1.45;;
55212;SDS011;41083;52.932;6.674;2022-10-26T15:34:05;3.72;;;1.90;;
55212;SDS011;41083;52.932;6.674;2022-10-26T15:36:29;1.85;;;1.30;;
55212;SDS011;41083;52.932;6.674;2022-10-26T15:38:56;6.65;;;1.88;;
55212;SDS011;41083;52.932;6.674;2022-10-26T15:41:30;3.50;;;1.80;;
55212;SDS011;41083;52.932;6.674;2022-10-26T15:43:59;2.20;;;1.48;;
55212;SDS011;41083;52.932;6.674;2022-10-26T15:46:30;1.95;;;1.20;;
55212;SDS011;41083;52.932;6.674;2022-10-26T15:48:58;1.88;;;1.17;;
55212;SDS011;41083;52.932;6.674;2022-10-26T15:51:26;3.30;;;1.60;;
55212;SDS011;41083;52.932;6.674;2022-10-26T15:53:54;6.25;;;1.70;;
55212;SDS011;41083;52.932;6.674;2022-10-26T15:56:21;5.95;;;4.15;;
55212;SDS011;41083;52.932;6.674;2022-10-26T15:58:49;4.18;;;2.88;;
55212;SDS011;41083;52.932;6.674;2022-10-26T16:01:16;2.42;;;1.67;;
55212;SDS011;41083;52.932;6.674;2022-10-26T16:03:47;3.45;;;2.13;;
55212;SDS011;41083;52.932;6.674;2022-10-26T16:06:15;3.35;;;1.92;;
55212;SDS011;41083;52.932;6.674;2022-10-26T16:08:50;8.48;;;5.07;;
55212;SDS011;41083;52.932;6.674;2022-10-26T16:11:17;3.85;;;2.63;;
55212;SDS011;41083;52.932;6.674;2022-10-26T16:13:42;4.10;;;2.40;;
55212;SDS011;41083;52.932;6.674;2022-10-26T16:16:09;3.92;;;2.45;;
55212;SDS011;41083;52.932;6.674;2022-10-26T16:18:40;8.77;;;3.72;;
55212;SDS011;41083;52.932;6.674;2022-10-26T16:21:09;15.98;;;7.93;;
55212;SDS011;41083;52.932;6.674;2022-10-26T16:23:39;8.00;;;4.70;;
55212;SDS011;41083;52.932;6.674;2022-10-26T16:26:06;4.53;;;2.90;;
55212;SDS011;41083;52.932;6.674;2022-10-26T16:28:32;5.18;;;2.33;;
55212;SDS011;41083;52.932;6.674;2022-10-26T16:30:59;10.07;;;4.25;;
55212;SDS011;41083;52.932;6.674;2022-10-26T16:33:26;4.88;;;3.58;;
55212;SDS011;41083;52.932;6.674;2022-10-26T16:35:55;6.80;;;3.38;;
55212;SDS011;41083;52.932;6.674;2022-10-26T16:38:22;3.53;;;2.53;;
55212;SDS011;41083;52.932;6.674;2022-10-26T16:40:48;4.03;;;2.85;;
55212;SDS011;41083;52.932;6.674;2022-10-26T16:43:14;5.05;;;2.13;;
55212;SDS011;41083;52.932;6.674;2022-10-26T16:45:39;8.80;;;4.07;;
55212;SDS011;41083;52.932;6.674;2022-10-26T16:48:06;3.58;;;2.45;;
55212;SDS011;41083;52.932;6.674;2022-10-26T16:50:38;2.83;;;1.90;;
55212;SDS011;41083;52.932;6.674;2022-10-26T16:53:04;3.67;;;2.40;;
55212;SDS011;41083;52.932;6.674;2022-10-26T16:55:29;2.58;;;1.75;;
55212;SDS011;41083;52.932;6.674;2022-10-26T16:57:55;6.13;;;2.45;;
55212;SDS011;41083;52.932;6.674;2022-10-26T17:00:21;3.65;;;2.22;;
55212;SDS011;41083;52.932;6.674;2022-10-26T17:02:46;3.85;;;2.10;;
55212;SDS011;41083;52.932;6.674;2022-10-26T17:05:12;2.58;;;1.85;;
55212;SDS011;41083;52.932;6.674;2022-10-26T17:07:37;3.25;;;2.03;;
55212;SDS011;41083;52.932;6.674;2022-10-26T17:10:03;3.28;;;2.38;;
55212;SDS011;41083;52.932;6.674;2022-10-26T17:12:29;3.67;;;2.08;;
55212;SDS011;41083;52.932;6.674;2022-10-26T17:14:55;8.73;;;2.22;;
55212;SDS011;41083;52.932;6.674;2022-10-26T17:17:23;3.20;;;2.10;;
55212;SDS011;41083;52.932;6.674;2022-10-26T17:19:48;7.13;;;2.28;;
55212;SDS011;41083;52.932;6.674;2022-10-26T17:22:14;2.90;;;2.10;;
55212;SDS011;41083;52.932;6.674;2022-10-26T17:24:40;3.30;;;2.00;;
55212;SDS011;41083;52.932;6.674;2022-10-26T17:27:06;5.75;;;2.55;;
55212;SDS011;41083;52.932;6.674;2022-10-26T17:29:31;4.28;;;2.33;;
55212;SDS011;41083;52.932;6.674;2022-10-26T17:31:57;4.07;;;2.28;;
55212;SDS011;41083;52.932;6.674;2022-10-26T17:34:22;4.55;;;2.42;;
55212;SDS011;41083;52.932;6.674;2022-10-26T17:36:48;4.20;;;2.45;;
55212;SDS011;41083;52.932;6.674;2022-10-26T17:39:13;4.95;;;2.67;;
55212;SDS011;41083;52.932;6.674;2022-10-26T17:41:40;3.97;;;2.80;;
55212;SDS011;41083;52.932;6.674;2022-10-26T17:44:05;3.50;;;2.42;;
55212;SDS011;41083;52.932;6.674;2022-10-26T17:46:31;3.03;;;1.90;;
55212;SDS011;41083;52.932;6.674;2022-10-26T17:48:58;4.05;;;2.00;;
55212;SDS011;41083;52.932;6.674;2022-10-26T17:51:25;3.05;;;2.05;;
55212;SDS011;41083;52.932;6.674;2022-10-26T17:53:52;4.70;;;2.22;;
55212;SDS011;41083;52.932;6.674;2022-10-26T17:56:22;3.08;;;2.08;;
55212;SDS011;41083;52.932;6.674;2022-10-26T17:58:49;2.70;;;2.13;;
55212;SDS011;41083;52.932;6.674;2022-10-26T18:01:16;3.30;;;2.55;;
55212;SDS011;41083;52.932;6.674;2022-10-26T18:03:41;2.85;;;2.03;;
55212;SDS011;41083;52.932;6.674;2022-10-26T18:06:07;3.35;;;2.30;;
55212;SDS011;41083;52.932;6.674;2022-10-26T18:08:33;6.90;;;2.15;;
55212;SDS011;41083;52.932;6.674;2022-10-26T18:11:03;3.83;;;2.08;;
55212;SDS011;41083;52.932;6.674;2022-10-26T18:13:30;3.90;;;2.22;;
55212;SDS011;41083;52.932;6.674;2022-10-26T18:16:08;5.90;;;2.92;;
55212;SDS011;41083;52.932;6.674;2022-10-26T18:18:35;6.88;;;2.72;;
55212;SDS011;41083;52.932;6.674;2022-10-26T18:23:27;5.03;;;3.00;;
55212;SDS011;41083;52.932;6.674;2022-10-26T18:26:03;3.92;;;3.20;;
55212;SDS011;41083;52.932;6.674;2022-10-26T18:28:32;3.85;;;2.88;;
55212;SDS011;41083;52.932;6.674;2022-10-26T18:30:58;6.13;;;2.75;;
55212;SDS011;41083;52.932;6.674;2022-10-26T18:33:25;3.40;;;2.42;;
55212;SDS011;41083;52.932;6.674;2022-10-26T18:35:51;5.30;;;3.10;;
55212;SDS011;41083;52.932;6.674;2022-10-26T18:38:17;7.40;;;4.25;;
55212;SDS011;41083;52.932;6.674;2022-10-26T18:40:42;5.82;;;3.28;;
55212;SDS011;41083;52.932;6.674;2022-10-26T18:43:08;5.47;;;3.67;;
55212;SDS011;41083;52.932;6.674;2022-10-26T18:45:33;4.53;;;3.42;;
55212;SDS011;41083;52.932;6.674;2022-10-26T18:47:59;8.90;;;4.15;;
55212;SDS011;41083;52.932;6.674;2022-10-26T18:50:24;6.93;;;4.18;;
55212;SDS011;41083;52.932;6.674;2022-10-26T18:52:50;8.85;;;5.15;;
55212;SDS011;41083;52.932;6.674;2022-10-26T18:55:16;8.57;;;5.68;;
55212;SDS011;41083;52.932;6.674;2022-10-26T18:57:41;11.93;;;6.90;;
55212;SDS011;41083;52.932;6.674;2022-10-26T19:00:07;6.80;;;3.22;;
55212;SDS011;41083;52.932;6.674;2022-10-26T19:02:33;8.05;;;4.82;;
55212;SDS011;41083;52.932;6.674;2022-10-26T19:04:58;5.72;;;3.33;;
55212;SDS011;41083;52.932;6.674;2022-10-26T19:07:24;4.72;;;3.25;;
55212;SDS011;41083;52.932;6.674;2022-10-26T19:09:50;5.65;;;3.47;;
55212;SDS011;41083;52.932;6.674;2022-10-26T19:12:15;5.18;;;4.00;;
55212;SDS011;41083;52.932;6.674;2022-10-26T19:14:41;4.65;;;3.30;;
55212;SDS011;41083;52.932;6.674;2022-10-26T19:17:06;5.30;;;3.28;;
55212;SDS011;41083;52.932;6.674;2022-10-26T19:19:32;4.82;;;2.92;;
55212;SDS011;41083;52.932;6.674;2022-10-26T19:21:57;4.85;;;3.13;;
55212;SDS011;41083;52.932;6.674;2022-10-26T19:24:24;5.97;;;3.08;;
55212;SDS011;41083;52.932;6.674;2022-10-26T19:26:50;10.18;;;3.15;;
55212;SDS011;41083;52.932;6.674;2022-10-26T19:29:17;6.13;;;4.15;;
55212;SDS011;41083;52.932;6.674;2022-10-26T19:31:44;4.72;;;2.83;;
55212;SDS011;41083;52.932;6.674;2022-10-26T19:34:10;5.78;;;3.50;;
55212;SDS011;41083;52.932;6.674;2022-10-26T19:36:37;6.03;;;3.28;;
55212;SDS011;41083;52.932;6.674;2022-10-26T19:39:07;6.20;;;2.92;;
55212;SDS011;41083;52.932;6.674;2022-10-26T19:41:33;4.68;;;3.28;;
55212;SDS011;41083;52.932;6.674;2022-10-26T19:43:59;5.05;;;3.03;;
55212;SDS011;41083;52.932;6.674;2022-10-26T19:46:26;5.85;;;3.10;;
55212;SDS011;41083;52.932;6.674;2022-10-26T19:48:57;7.32;;;3.13;;
55212;SDS011;41083;52.932;6.674;2022-10-26T19:51:24;4.82;;;2.92;;
55212;SDS011;41083;52.932;6.674;2022-10-26T19:53:51;3.85;;;2.67;;
55212;SDS011;41083;52.932;6.674;2022-10-26T19:56:16;5.30;;;3.10;;
55212;SDS011;41083;52.932;6.674;2022-10-26T19:58:44;4.25;;;2.55;;
55212;SDS011;41083;52.932;6.674;2022-10-26T20:01:11;3.60;;;2.47;;
55212;SDS011;41083;52.932;6.674;2022-10-26T20:03:37;4.20;;;2.53;;
55212;SDS011;41083;52.932;6.674;2022-10-26T20:06:04;4.93;;;2.97;;
55212;SDS011;41083;52.932;6.674;2022-10-26T20:08:38;4.35;;;2.72;;
55212;SDS011;41083;52.932;6.674;2022-10-26T20:11:05;6.40;;;2.65;;
55212;SDS011;41083;52.932;6.674;2022-10-26T20:13:31;4.88;;;2.85;;
55212;SDS011;41083;52.932;6.674;2022-10-26T20:15:57;7.07;;;4.43;;
55212;SDS011;41083;52.932;6.674;2022-10-26T20:18:22;4.82;;;3.20;;
55212;SDS011;41083;52.932;6.674;2022-10-26T20:20:48;5.60;;;3.35;;
55212;SDS011;41083;52.932;6.674;2022-10-26T20:23:13;4.63;;;3.03;;
55212;SDS011;41083;52.932;6.674;2022-10-26T20:25:44;5.68;;;3.28;;
55212;SDS011;41083;52.932;6.674;2022-10-26T20:28:13;11.13;;;3.22;;
55212;SDS011;41083;52.932;6.674;2022-10-26T20:30:39;4.45;;;2.70;;
55212;SDS011;41083;52.932;6.674;2022-10-26T20:33:06;5.22;;;2.42;;
55212;SDS011;41083;52.932;6.674;2022-10-26T20:35:32;4.75;;;2.67;;
55212;SDS011;41083;52.932;6.674;2022-10-26T20:37:58;4.43;;;2.72;;
55212;SDS011;41083;52.932;6.674;2022-10-26T20:40:24;4.68;;;2.55;;
55212;SDS011;41083;52.932;6.674;2022-10-26T20:42:51;3.85;;;2.22;;
55212;SDS011;41083;52.932;6.674;2022-10-26T20:47:51;3.88;;;2.55;;
55212;SDS011;41083;52.932;6.674;2022-10-26T20:50:18;2.40;;;1.63;;
55212;SDS011;41083;52.932;6.674;2022-10-26T20:52:55;6.93;;;2.38;;
55212;SDS011;41083;52.932;6.674;2022-10-26T20:55:36;3.42;;;2.28;;
55212;SDS011;41083;52.932;6.674;2022-10-26T20:58:13;4.50;;;2.10;;
55212;SDS011;41083;52.932;6.674;2022-10-26T21:00:48;4.15;;;1.85;;
55212;SDS011;41083;52.932;6.674;2022-10-26T21:03:20;3.65;;;2.42;;
55212;SDS011;41083;52.932;6.674;2022-10-26T21:05:46;4.50;;;2.22;;
55212;SDS011;41083;52.932;6.674;2022-10-26T21:08:12;2.85;;;1.80;;
55212;SDS011;41083;52.932;6.674;2022-10-26T21:10:37;4.18;;;2.08;;
55212;SDS011;41083;52.932;6.674;2022-10-26T21:13:03;3.20;;;1.65;;
55212;SDS011;41083;52.932;6.674;2022-10-26T21:15:29;3.08;;;1.85;;
55212;SDS011;41083;52.932;6.674;2022-10-26T21:17:54;2.47;;;1.48;;
55212;SDS011;41083;52.932;6.674;2022-10-26T21:20:20;3.13;;;1.70;;
55212;SDS011;41083;52.932;6.674;2022-10-26T21:22:45;2.42;;;1.40;;
55212;SDS011;41083;52.932;6.674;2022-10-26T21:25:11;5.38;;;1.67;;
55212;SDS011;41083;52.932;6.674;2022-10-26T21:27:37;1.80;;;1.13;;
55212;SDS011;41083;52.932;6.674;2022-10-26T21:30:02;3.08;;;1.38;;
55212;SDS011;41083;52.932;6.674;2022-10-26T21:32:29;3.83;;;1.90;;
55212;SDS011;41083;52.932;6.674;2022-10-26T21:34:54;2.13;;;1.30;;
55212;SDS011;41083;52.932;6.674;2022-10-26T21:37:20;3.20;;;1.33;;
55212;SDS011;41083;52.932;6.674;2022-10-26T21:39:48;2.47;;;1.20;;
55212;SDS011;41083;52.932;6.674;2022-10-26T21:42:13;2.53;;;1.25;;
55212;SDS011;41083;52.932;6.674;2022-10-26T21:44:39;2.63;;;1.17;;
55212;SDS011;41083;52.932;6.674;2022-10-26T21:47:04;2.00;;;0.95;;
55212;SDS011;41083;52.932;6.674;2022-10-26T21:49:30;2.10;;;1.05;;
55212;SDS011;41083;52.932;6.674;2022-10-26T21:51:56;1.67;;;1.00;;
55212;SDS011;41083;52.932;6.674;2022-10-26T21:54:21;2.30;;;1.00;;
55212;SDS011;41083;52.932;6.674;2022-10-26T21:56:47;5.80;;;1.25;;
55212;SDS011;41083;52.932;6.674;2022-10-26T21:59:12;3.58;;;1.30;;
55212;SDS011;41083;52.932;6.674;2022-10-26T22:01:38;2.17;;;1.00;;
55212;SDS011;41083;52.932;6.674;2022-10-26T22:04:03;6.18;;;1.38;;
55212;SDS011;41083;52.932;6.674;2022-10-26T22:06:29;5.50;;;1.42;;
55212;SDS011;41083;52.932;6.674;2022-10-26T22:08:54;1.60;;;0.75;;
55212;SDS011;41083;52.932;6.674;2022-10-26T22:11:21;2.40;;;1.45;;
55212;SDS011;41083;52.932;6.674;2022-10-26T22:13:48;1.08;;;0.70;;
55212;SDS011;41083;52.932;6.674;2022-10-26T22:16:15;1.40;;;0.80;;
55212;SDS011;41083;52.932;6.674;2022-10-26T22:18:46;5.13;;;1.15;;
55212;SDS011;41083;52.932;6.674;2022-10-26T22:21:15;1.77;;;0.90;;
55212;SDS011;41083;52.932;6.674;2022-10-26T22:23:42;1.33;;;0.90;;
55212;SDS011;41083;52.932;6.674;2022-10-26T22:26:12;1.92;;;0.90;;
55212;SDS011;41083;52.932;6.674;2022-10-26T22:28:47;2.50;;;0.95;;
55212;SDS011;41083;52.932;6.674;2022-10-26T22:31:19;1.40;;;0.90;;
55212;SDS011;41083;52.932;6.674;2022-10-26T22:33:55;1.48;;;0.80;;
55212;SDS011;41083;52.932;6.674;2022-10-26T22:36:22;1.58;;;0.93;;
55212;SDS011;41083;52.932;6.674;2022-10-26T22:38:48;2.75;;;1.10;;
55212;SDS011;41083;52.932;6.674;2022-10-26T22:41:15;2.55;;;1.15;;
55212;SDS011;41083;52.932;6.674;2022-10-26T22:43:42;3.25;;;1.75;;
55212;SDS011;41083;52.932;6.674;2022-10-26T22:46:15;3.17;;;1.13;;
55212;SDS011;41083;52.932;6.674;2022-10-26T22:48:42;1.73;;;0.70;;
55212;SDS011;41083;52.932;6.674;2022-10-26T22:51:11;1.45;;;1.05;;
55212;SDS011;41083;52.932;6.674;2022-10-26T22:53:50;3.85;;;1.27;;
55212;SDS011;41083;52.932;6.674;2022-10-26T22:56:17;5.40;;;1.35;;
55212;SDS011;41083;52.932;6.674;2022-10-26T22:58:42;3.72;;;1.20;;
55212;SDS011;41083;52.932;6.674;2022-10-26T23:01:10;1.52;;;0.98;;
55212;SDS011;41083;52.932;6.674;2022-10-26T23:03:37;2.40;;;1.08;;
55212;SDS011;41083;52.932;6.674;2022-10-26T23:06:04;1.40;;;0.95;;
55212;SDS011;41083;52.932;6.674;2022-10-26T23:08:31;2.08;;;1.20;;
55212;SDS011;41083;52.932;6.674;2022-10-26T23:10:57;4.53;;;1.73;;
55212;SDS011;41083;52.932;6.674;2022-10-26T23:13:24;4.22;;;1.48;;
55212;SDS011;41083;52.932;6.674;2022-10-26T23:15:49;2.63;;;1.42;;
55212;SDS011;41083;52.932;6.674;2022-10-26T23:18:15;4.35;;;1.33;;
55212;SDS011;41083;52.932;6.674;2022-10-26T23:20:41;2.10;;;1.25;;
55212;SDS011;41083;52.932;6.674;2022-10-26T23:23:06;3.28;;;1.17;;
55212;SDS011;41083;52.932;6.674;2022-10-26T23:25:32;2.38;;;1.02;;
55212;SDS011;41083;52.932;6.674;2022-10-26T23:27:57;3.38;;;1.40;;
55212;SDS011;41083;52.932;6.674;2022-10-26T23:30:23;4.05;;;1.30;;
55212;SDS011;41083;52.932;6.674;2022-10-26T23:32:48;2.22;;;1.30;;
55212;SDS011;41083;52.932;6.674;2022-10-26T23:35:14;2.42;;;1.30;;
55212;SDS011;41083;52.932;6.674;2022-10-26T23:37:40;3.42;;;1.70;;
55212;SDS011;41083;52.932;6.674;2022-10-26T23:40:05;3.40;;;1.60;;